createdAt,value
2017-07-05T00:00:02.905Z,86.41
2017-07-05T00:05:03.230Z,85.93
2017-07-05T00:10:02.576Z,85.74
2017-07-05T00:15:03.002Z,85.16
2017-07-05T00:20:03.366Z,84.55
2017-07-05T00:25:02.685Z,84.16
2017-07-05T00:30:02.938Z,83.87
2017-07-05T00:35:03.417Z,83.49
2017-07-05T00:40:02.808Z,82.82
2017-07-05T00:45:03.213Z,82.63
2017-07-05T00:50:03.468Z,82.24
2017-07-05T00:55:02.814Z,82.24
2017-07-05T01:00:03.168Z,81.54
2017-07-05T01:05:03.406Z,81.25
2017-07-05T01:10:02.880Z,80.58
2017-07-05T01:15:03.329Z,80.48
2017-07-05T01:20:02.618Z,79.52
2017-07-05T01:25:03.010Z,78.38
2017-07-05T01:30:03.420Z,77.61
2017-07-05T01:35:02.695Z,78.05
2017-07-05T01:40:03.077Z,77.28
2017-07-05T01:45:03.461Z,75.76
2017-07-05T01:50:02.833Z,75.66
2017-07-05T01:55:03.283Z,75.18
2017-07-05T02:00:03.530Z,74.61
2017-07-05T02:05:02.850Z,73.84
2017-07-05T02:10:03.296Z,73.17
2017-07-05T02:15:02.799Z,72.88
2017-07-05T02:20:03.271Z,72.88
2017-07-05T02:25:02.654Z,72.41
2017-07-05T02:30:02.936Z,71.93
2017-07-05T02:35:03.428Z,71.36
2017-07-05T02:40:02.872Z,71.16
2017-07-05T02:45:03.251Z,70.78
2017-07-05T02:50:02.637Z,70.27
2017-07-05T02:55:03.105Z,69.6
2017-07-05T03:00:03.556Z,70.27
2017-07-05T03:05:02.846Z,70.84
2017-07-05T03:10:03.392Z,69.5
2017-07-05T03:15:02.781Z,69.73
2017-07-05T03:20:03.370Z,70.01
2017-07-05T03:25:02.826Z,69.82
2017-07-05T03:30:03.314Z,70.01
2017-07-05T03:35:02.862Z,69.41
2017-07-05T03:40:03.207Z,69.21
2017-07-05T03:45:03.484Z,69.31
2017-07-05T03:50:02.861Z,68.84
2017-07-05T03:55:03.466Z,68.16
2017-07-05T04:00:03.130Z,67.59
2017-07-05T04:05:02.633Z,67.72
2017-07-05T04:10:03.132Z,67.63
2017-07-05T04:15:03.553Z,67.63
2017-07-05T04:20:03.012Z,67.91
2017-07-05T04:25:03.567Z,68.29
2017-07-05T04:30:02.899Z,68.77
2017-07-05T04:35:03.211Z,69
2017-07-05T04:40:02.685Z,69.57
2017-07-05T04:45:03.110Z,70.05
2017-07-05T04:50:02.627Z,70.05
2017-07-05T04:55:02.966Z,70.85
2017-07-05T05:00:03.433Z,70.56
2017-07-05T05:05:02.833Z,69.51
2017-07-05T05:10:03.285Z,69.32
2017-07-05T05:15:02.623Z,69.8
2017-07-05T05:20:03.168Z,71.17
2017-07-05T05:25:03.470Z,71.78
2017-07-05T05:30:02.889Z,73.41
2017-07-05T05:35:03.192Z,74.02
2017-07-05T05:40:02.560Z,74.6
2017-07-05T05:45:03.034Z,75.56
2017-07-05T05:50:03.307Z,74.93
2017-07-05T05:55:02.728Z,76.94
2017-07-05T06:00:03.022Z,78.61
2017-07-05T06:05:03.495Z,78.61
2017-07-05T06:10:02.759Z,81.05
2017-07-05T06:15:03.013Z,83.49
2017-07-05T06:20:03.682Z,85.46
2017-07-05T06:25:03.125Z,87.23
2017-07-05T06:30:03.562Z,88.76
2017-07-05T06:35:03.110Z,89.43
2017-07-05T06:40:03.465Z,90.39
2017-07-05T06:45:02.889Z,91.83
2017-07-05T06:50:03.301Z,93.37
2017-07-05T06:55:02.573Z,94.48
2017-07-05T07:00:02.874Z,95.5
2017-07-05T07:05:03.386Z,96.22
2017-07-05T07:10:02.761Z,96.89
2017-07-05T07:15:03.241Z,98.39
2017-07-05T07:20:02.637Z,98.83
2017-07-05T07:25:02.949Z,99.8
2017-07-05T07:30:03.381Z,99.99
2017-07-05T07:35:02.958Z,99.99
2017-07-05T07:40:03.366Z,99.99
2017-07-05T07:45:02.809Z,99.99
2017-07-05T07:50:03.258Z,99.99
2017-07-05T07:55:02.802Z,99.99
2017-07-05T08:00:03.377Z,97.96
2017-07-05T08:05:02.763Z,98.58
2017-07-05T08:10:03.177Z,97.61
2017-07-05T08:15:03.502Z,97.27
2017-07-05T08:20:03.105Z,91.34
2017-07-05T08:25:02.623Z,90.02
2017-07-05T08:30:02.944Z,88.8
2017-07-05T08:35:03.375Z,87.04
2017-07-05T08:40:03.119Z,83.06
2017-07-05T08:45:03.563Z,81.4
2017-07-05T08:50:03.376Z,79.2
2017-07-05T08:55:02.708Z,77.87
2017-07-05T09:00:02.869Z,74.54
2017-07-05T09:05:02.823Z,73.41
2017-07-05T09:10:03.499Z,71.23
2017-07-05T09:15:02.552Z,69.99
2017-07-05T09:20:02.957Z,69.18
2017-07-05T09:25:03.279Z,66.08
2017-07-05T09:30:03.193Z,63.1
2017-07-05T09:35:03.053Z,63.69
2017-07-05T09:40:02.564Z,64.11
2017-07-05T09:45:02.672Z,61.99
2017-07-05T09:50:03.428Z,59.2
2017-07-05T09:55:03.222Z,58.54
2017-07-05T10:00:02.846Z,58.67
2017-07-05T10:05:03.340Z,57.63
2017-07-05T10:10:02.944Z,59.63
2017-07-05T10:15:02.841Z,58.11
2017-07-05T10:20:02.684Z,59.97
2017-07-05T10:25:02.923Z,58.17
2017-07-05T10:30:03.191Z,59.22
2017-07-05T10:35:02.946Z,57.91
2017-07-05T10:40:03.386Z,57.78
2017-07-05T10:45:03.034Z,59.39
2017-07-05T10:50:02.803Z,60.02
2017-07-05T10:55:02.996Z,61.1
2017-07-05T11:00:03.251Z,60.8
2017-07-05T11:05:03.309Z,59.63
2017-07-05T11:10:03.477Z,59.42
2017-07-05T11:15:02.827Z,58.62
2017-07-05T11:20:02.808Z,56.3
2017-07-05T11:25:03.404Z,56.52
2017-07-05T11:30:03.345Z,53.9
2017-07-05T11:35:03.093Z,54.75
2017-07-05T11:40:03.081Z,53.45
2017-07-05T11:45:02.772Z,53.25
2017-07-05T11:50:02.833Z,55.73
2017-07-05T11:55:02.826Z,54.63
2017-07-05T12:00:03.011Z,54.06
2017-07-05T12:05:03.410Z,55.51
2017-07-05T12:10:03.043Z,55.82
2017-07-05T12:15:02.578Z,54.6
2017-07-05T12:20:02.661Z,55.33
2017-07-05T12:25:03.241Z,53.6
2017-07-05T12:30:03.466Z,55.05
2017-07-05T12:35:03.366Z,53.38
2017-07-05T12:40:03.326Z,56.75
2017-07-05T12:45:03.388Z,54.83
2017-07-05T12:50:02.825Z,53.28
2017-07-05T12:55:03.305Z,53.31
2017-07-05T13:00:03.412Z,53.65
2017-07-05T13:05:02.917Z,54.11
2017-07-05T13:10:03.120Z,53.21
2017-07-05T13:15:02.596Z,52.52
2017-07-05T13:20:02.614Z,53.11
2017-07-05T13:25:03.035Z,53.23
2017-07-05T13:30:03.419Z,54.25
2017-07-05T13:35:02.936Z,53.98
2017-07-05T13:40:03.388Z,53.58
2017-07-05T13:45:02.801Z,53.56
2017-07-05T13:50:03.442Z,54.1
2017-07-05T13:55:03.197Z,55.12
2017-07-05T14:00:03.524Z,56.05
2017-07-05T14:05:03.487Z,57.07
2017-07-05T14:10:03.023Z,57
2017-07-05T14:15:02.615Z,57.22
2017-07-05T14:20:02.594Z,57.17
2017-07-05T14:25:03.319Z,57.76
2017-07-05T14:30:02.811Z,57.78
2017-07-05T14:35:03.357Z,57.35
2017-07-05T14:40:02.802Z,57.32
2017-07-05T14:45:03.476Z,56.83
2017-07-05T14:50:02.698Z,56.93
2017-07-05T14:55:03.030Z,58.31
2017-07-05T15:00:03.373Z,59.04
2017-07-05T15:05:03.459Z,58.9
2017-07-05T15:10:02.850Z,58.64
2017-07-05T15:15:03.194Z,56.09
2017-07-05T15:20:03.560Z,58.97
2017-07-05T15:25:02.837Z,60.11
2017-07-05T15:30:03.357Z,59.95
2017-07-05T15:35:02.675Z,59.04
2017-07-05T15:40:03.158Z,60.06
2017-07-05T15:45:03.380Z,60.28
2017-07-05T15:50:02.800Z,59.96
2017-07-05T15:55:03.044Z,61.33
2017-07-05T16:00:03.094Z,60.88
2017-07-05T16:05:03.067Z,62.31
2017-07-05T16:10:03.330Z,63.51
2017-07-05T16:15:02.631Z,64.32
2017-07-05T16:20:03.490Z,63.9
2017-07-05T16:25:02.696Z,64.29
2017-07-05T16:30:03.099Z,64.68
2017-07-05T16:35:03.536Z,66.11
2017-07-05T16:40:02.808Z,65.72
2017-07-05T16:45:03.376Z,66.76
2017-07-05T16:50:03.380Z,67.44
2017-07-05T16:55:02.968Z,68.09
2017-07-05T17:00:02.962Z,68.45
2017-07-05T17:05:03.303Z,69.87
2017-07-05T17:10:03.477Z,71.3
2017-07-05T17:15:02.747Z,72.37
2017-07-05T17:20:03.421Z,72.92
2017-07-05T17:25:02.666Z,73.79
2017-07-05T17:30:03.287Z,75.05
2017-07-05T17:35:02.949Z,78.33
2017-07-05T17:40:03.257Z,83.09
2017-07-05T17:45:03.522Z,87.03
2017-07-05T17:50:03.133Z,89.61
2017-07-05T17:55:02.766Z,92.03
2017-07-05T18:00:03.479Z,94.32
2017-07-05T18:05:03.297Z,95.82
2017-07-05T18:10:02.662Z,96.45
2017-07-05T18:15:03.428Z,96.94
2017-07-05T18:20:03.077Z,97.57
2017-07-05T18:25:03.540Z,97.86
2017-07-05T18:30:02.882Z,98.2
2017-07-05T18:35:03.369Z,98.3
2017-07-05T18:40:02.587Z,98.44
2017-07-05T18:45:02.813Z,98.54
2017-07-05T18:50:03.046Z,98.58
2017-07-05T18:55:03.092Z,98.2
2017-07-05T19:00:03.311Z,98.05
2017-07-05T19:05:02.698Z,98.35
2017-07-05T19:10:02.854Z,98.39
2017-07-05T19:15:02.784Z,98.58
2017-07-05T19:20:02.959Z,98.63
2017-07-05T19:25:02.807Z,98.68
2017-07-05T19:30:03.375Z,98.58
2017-07-05T19:35:03.146Z,98.44
2017-07-05T19:40:03.174Z,98.15
2017-07-05T19:45:03.300Z,98.05
2017-07-05T19:50:03.114Z,97.72
2017-07-05T19:55:03.201Z,97.33
2017-07-05T20:00:02.651Z,96.94
2017-07-05T20:05:03.290Z,96.51
2017-07-05T20:10:03.269Z,96.12
2017-07-05T20:15:03.230Z,95.69
2017-07-05T20:20:03.520Z,95.21
2017-07-05T20:25:02.761Z,94.73
2017-07-05T20:30:03.181Z,94.24
2017-07-05T20:35:03.448Z,93.66
2017-07-05T20:40:02.635Z,92.66
2017-07-05T20:45:03.402Z,91.79
2017-07-05T20:50:02.699Z,90.83
2017-07-05T20:55:03.438Z,90.06
2017-07-05T21:00:03.404Z,88.57
2017-07-05T21:05:02.902Z,86.35
2017-07-05T21:10:03.557Z,85.3
2017-07-05T21:15:03.102Z,83.85
2017-07-05T21:20:03.571Z,83.42
2017-07-05T21:25:03.027Z,83.04
2017-07-05T21:30:03.371Z,82.27
2017-07-05T21:35:02.777Z,81.6
2017-07-05T21:40:03.232Z,81.17
2017-07-05T21:45:02.655Z,80.21
2017-07-05T21:50:03.065Z,79.25
2017-07-05T21:55:03.303Z,78.86
2017-07-05T22:00:02.628Z,78.34
2017-07-05T22:05:02.969Z,77.76
2017-07-05T22:10:03.422Z,76.71
2017-07-05T22:15:02.866Z,76.32
2017-07-05T22:20:03.345Z,75.84
2017-07-05T22:25:02.781Z,75.23
2017-07-05T22:30:03.081Z,75.13
2017-07-05T22:35:03.459Z,74.55
2017-07-05T22:40:02.992Z,74.08
2017-07-05T22:45:03.585Z,73.37
2017-07-05T22:50:03.058Z,72.69
2017-07-05T22:55:03.424Z,72.5
2017-07-05T23:00:02.967Z,71.93
2017-07-05T23:05:02.742Z,71.45
2017-07-05T23:10:03.079Z,71.06
2017-07-05T23:15:03.558Z,70.49
2017-07-05T23:20:02.958Z,69.78
2017-07-05T23:25:03.385Z,69.4
2017-07-05T23:30:02.800Z,69.01
2017-07-05T23:35:03.118Z,68.73
2017-07-05T23:40:03.589Z,68.24
2017-07-05T23:45:03.100Z,67.29
2017-07-05T23:50:03.507Z,66.77
2017-07-05T23:55:03.026Z,66.1
